sensor_id;sensor_type;location;lat;lon;timestamp;P1;durP1;ratioP1;P2;durP2;ratioP2
37645;SDS011;23489;49.600;6.138;2022-07-23T07:19:37;15.57;;;10.25;;
37645;SDS011;23489;49.600;6.138;2022-07-23T07:22:03;15.07;;;11.20;;
37645;SDS011;23489;49.600;6.138;2022-07-23T07:24:28;14.10;;;10.48;;
37645;SDS011;23489;49.600;6.138;2022-07-23T07:29:20;13.97;;;11.27;;
37645;SDS011;23489;49.600;6.138;2022-07-23T07:31:45;15.47;;;11.97;;
37645;SDS011;23489;49.600;6.138;2022-07-23T07:34:11;12.80;;;11.40;;
37645;SDS011;23489;49.600;6.138;2022-07-23T07:36:36;14.35;;;11.85;;
37645;SDS011;23489;49.600;6.138;2022-07-23T07:39:05;13.13;;;11.60;;
37645;SDS011;23489;49.600;6.138;2022-07-23T07:41:32;13.27;;;11.87;;
37645;SDS011;23489;49.600;6.138;2022-07-23T07:43:57;10.13;;;9.13;;
37645;SDS011;23489;49.600;6.138;2022-07-23T07:46:23;11.90;;;9.77;;
37645;SDS011;23489;49.600;6.138;2022-07-23T07:48:49;10.77;;;9.10;;
37645;SDS011;23489;49.600;6.138;2022-07-23T07:51:15;12.02;;;10.40;;
37645;SDS011;23489;49.600;6.138;2022-07-23T07:53:41;10.30;;;9.20;;
37645;SDS011;23489;49.600;6.138;2022-07-23T07:56:07;12.02;;;9.75;;
37645;SDS011;23489;49.600;6.138;2022-07-23T07:58:33;11.10;;;8.90;;
37645;SDS011;23489;49.600;6.138;2022-07-23T08:00:58;10.10;;;9.02;;
37645;SDS011;23489;49.600;6.138;2022-07-23T08:03:25;11.07;;;9.38;;
37645;SDS011;23489;49.600;6.138;2022-07-23T08:05:51;13.65;;;9.40;;
37645;SDS011;23489;49.600;6.138;2022-07-23T08:08:17;12.30;;;9.20;;
37645;SDS011;23489;49.600;6.138;2022-07-23T08:10:43;13.30;;;9.23;;
37645;SDS011;23489;49.600;6.138;2022-07-23T08:13:11;9.65;;;8.55;;
37645;SDS011;23489;49.600;6.138;2022-07-23T08:15:41;9.32;;;8.38;;
37645;SDS011;23489;49.600;6.138;2022-07-23T08:18:07;9.65;;;8.65;;
37645;SDS011;23489;49.600;6.138;2022-07-23T08:20:33;10.55;;;8.43;;
37645;SDS011;23489;49.600;6.138;2022-07-23T08:23:00;11.25;;;8.43;;
37645;SDS011;23489;49.600;6.138;2022-07-23T08:25:30;9.23;;;7.90;;
37645;SDS011;23489;49.600;6.138;2022-07-23T08:27:56;9.63;;;7.47;;
37645;SDS011;23489;49.600;6.138;2022-07-23T08:30:23;8.80;;;6.78;;
37645;SDS011;23489;49.600;6.138;2022-07-23T08:35:22;8.98;;;7.80;;
37645;SDS011;23489;49.600;6.138;2022-07-23T08:37:50;11.27;;;8.35;;
37645;SDS011;23489;49.600;6.138;2022-07-23T08:40:15;10.48;;;7.82;;
37645;SDS011;23489;49.600;6.138;2022-07-23T08:42:41;11.65;;;8.30;;
37645;SDS011;23489;49.600;6.138;2022-07-23T08:45:08;9.82;;;8.23;;
37645;SDS011;23489;49.600;6.138;2022-07-23T08:47:34;8.73;;;7.55;;
37645;SDS011;23489;49.600;6.138;2022-07-23T08:50:03;8.68;;;7.43;;
37645;SDS011;23489;49.600;6.138;2022-07-23T08:52:29;10.52;;;8.10;;
37645;SDS011;23489;49.600;6.138;2022-07-23T08:54:56;10.73;;;8.02;;
37645;SDS011;23489;49.600;6.138;2022-07-23T08:57:22;9.93;;;7.45;;
37645;SDS011;23489;49.600;6.138;2022-07-23T08:59:48;14.27;;;7.68;;
37645;SDS011;23489;49.600;6.138;2022-07-23T09:02:14;8.75;;;7.85;;
37645;SDS011;23489;49.600;6.138;2022-07-23T09:04:40;8.30;;;7.25;;
37645;SDS011;23489;49.600;6.138;2022-07-23T09:07:05;9.80;;;8.65;;
37645;SDS011;23489;49.600;6.138;2022-07-23T09:09:31;8.13;;;6.88;;
37645;SDS011;23489;49.600;6.138;2022-07-23T09:12:01;7.88;;;6.97;;
37645;SDS011;23489;49.600;6.138;2022-07-23T09:14:35;8.75;;;7.70;;
37645;SDS011;23489;49.600;6.138;2022-07-23T09:17:12;7.32;;;6.63;;
37645;SDS011;23489;49.600;6.138;2022-07-23T09:19:41;11.48;;;7.38;;
37645;SDS011;23489;49.600;6.138;2022-07-23T09:22:18;8.65;;;7.15;;
37645;SDS011;23489;49.600;6.138;2022-07-23T09:25:05;9.95;;;6.93;;
37645;SDS011;23489;49.600;6.138;2022-07-23T09:30:32;10.45;;;7.90;;
37645;SDS011;23489;49.600;6.138;2022-07-23T09:33:05;8.70;;;7.18;;
37645;SDS011;23489;49.600;6.138;2022-07-23T09:35:48;8.07;;;7.28;;
37645;SDS011;23489;49.600;6.138;2022-07-23T09:38:16;9.65;;;7.70;;
37645;SDS011;23489;49.600;6.138;2022-07-23T09:40:43;8.77;;;7.68;;
37645;SDS011;23489;49.600;6.138;2022-07-23T09:43:09;8.48;;;7.57;;
37645;SDS011;23489;49.600;6.138;2022-07-23T09:45:36;10.52;;;7.28;;
37645;SDS011;23489;49.600;6.138;2022-07-23T09:48:11;10.07;;;7.88;;
37645;SDS011;23489;49.600;6.138;2022-07-23T09:50:38;8.93;;;7.40;;
37645;SDS011;23489;49.600;6.138;2022-07-23T09:53:04;8.23;;;6.65;;
37645;SDS011;23489;49.600;6.138;2022-07-23T09:55:31;7.65;;;6.70;;
37645;SDS011;23489;49.600;6.138;2022-07-23T09:58:00;8.45;;;7.65;;
37645;SDS011;23489;49.600;6.138;2022-07-23T10:00:27;8.60;;;7.70;;
37645;SDS011;23489;49.600;6.138;2022-07-23T10:02:53;8.48;;;7.00;;
37645;SDS011;23489;49.600;6.138;2022-07-23T10:05:42;8.45;;;7.70;;
37645;SDS011;23489;49.600;6.138;2022-07-23T10:08:32;8.73;;;7.82;;
37645;SDS011;23489;49.600;6.138;2022-07-23T10:11:17;11.10;;;8.45;;
37645;SDS011;23489;49.600;6.138;2022-07-23T10:13:51;9.30;;;8.15;;
37645;SDS011;23489;49.600;6.138;2022-07-23T10:16:21;10.45;;;8.45;;
37645;SDS011;23489;49.600;6.138;2022-07-23T10:18:47;12.75;;;8.27;;
37645;SDS011;23489;49.600;6.138;2022-07-23T10:23:57;13.10;;;10.85;;
37645;SDS011;23489;49.600;6.138;2022-07-23T22:22:22;8.68;;;6.85;;
37645;SDS011;23489;49.600;6.138;2022-07-23T22:24:47;7.22;;;6.53;;
37645;SDS011;23489;49.600;6.138;2022-07-23T22:27:13;7.20;;;6.50;;
37645;SDS011;23489;49.600;6.138;2022-07-23T22:29:39;9.23;;;6.77;;
37645;SDS011;23489;49.600;6.138;2022-07-23T22:32:04;7.53;;;6.43;;
37645;SDS011;23489;49.600;6.138;2022-07-23T22:34:30;8.50;;;6.70;;
37645;SDS011;23489;49.600;6.138;2022-07-23T22:36:57;7.50;;;6.80;;
37645;SDS011;23489;49.600;6.138;2022-07-23T22:39:22;7.40;;;6.50;;
37645;SDS011;23489;49.600;6.138;2022-07-23T22:41:48;7.80;;;6.87;;
37645;SDS011;23489;49.600;6.138;2022-07-23T22:44:13;7.07;;;6.30;;
37645;SDS011;23489;49.600;6.138;2022-07-23T22:46:39;7.28;;;6.57;;
37645;SDS011;23489;49.600;6.138;2022-07-23T22:49:05;7.20;;;6.50;;
37645;SDS011;23489;49.600;6.138;2022-07-23T22:51:30;7.15;;;6.45;;
37645;SDS011;23489;49.600;6.138;2022-07-23T22:53:56;8.20;;;7.40;;
37645;SDS011;23489;49.600;6.138;2022-07-23T22:56:22;7.72;;;6.65;;
37645;SDS011;23489;49.600;6.138;2022-07-23T22:58:48;7.68;;;6.85;;
37645;SDS011;23489;49.600;6.138;2022-07-23T23:01:13;9.40;;;7.07;;
37645;SDS011;23489;49.600;6.138;2022-07-23T23:03:39;8.03;;;6.70;;
37645;SDS011;23489;49.600;6.138;2022-07-23T23:06:05;9.13;;;6.88;;
37645;SDS011;23489;49.600;6.138;2022-07-23T23:08:31;7.57;;;6.83;;
37645;SDS011;23489;49.600;6.138;2022-07-23T23:10:56;9.45;;;7.10;;
37645;SDS011;23489;49.600;6.138;2022-07-23T23:13:22;9.88;;;7.20;;
37645;SDS011;23489;49.600;6.138;2022-07-23T23:15:48;7.63;;;6.80;;
37645;SDS011;23489;49.600;6.138;2022-07-23T23:18:13;8.50;;;6.57;;
37645;SDS011;23489;49.600;6.138;2022-07-23T23:20:39;7.55;;;6.63;;
37645;SDS011;23489;49.600;6.138;2022-07-23T23:23:05;7.78;;;6.97;;
37645;SDS011;23489;49.600;6.138;2022-07-23T23:25:30;7.10;;;6.40;;
37645;SDS011;23489;49.600;6.138;2022-07-23T23:27:56;8.03;;;7.00;;
37645;SDS011;23489;49.600;6.138;2022-07-23T23:30:22;8.30;;;6.72;;
37645;SDS011;23489;49.600;6.138;2022-07-23T23:32:48;9.20;;;6.87;;
37645;SDS011;23489;49.600;6.138;2022-07-23T23:35:13;7.87;;;6.83;;
37645;SDS011;23489;49.600;6.138;2022-07-23T23:37:39;10.57;;;7.45;;
37645;SDS011;23489;49.600;6.138;2022-07-23T23:40:05;7.57;;;6.78;;
37645;SDS011;23489;49.600;6.138;2022-07-23T23:42:32;10.20;;;7.07;;
37645;SDS011;23489;49.600;6.138;2022-07-23T23:44:57;10.52;;;7.38;;
37645;SDS011;23489;49.600;6.138;2022-07-23T23:47:23;13.38;;;7.13;;
37645;SDS011;23489;49.600;6.138;2022-07-23T23:49:49;16.37;;;7.43;;
37645;SDS011;23489;49.600;6.138;2022-07-23T23:52:14;15.13;;;7.93;;
37645;SDS011;23489;49.600;6.138;2022-07-23T23:54:40;7.43;;;6.65;;
37645;SDS011;23489;49.600;6.138;2022-07-23T23:57:06;11.80;;;7.13;;
37645;SDS011;23489;49.600;6.138;2022-07-23T23:59:32;12.30;;;7.65;;
